Time;durP1;ratioP1;P1;durP2;ratioP2;P2;SDS_P1;SDS_P2;PMS_P1;PMS_P2;Temp;Humidity;BMP_temperature;BMP_pressure;BME280_temperature;BME280_humidity;BME280_pressure;Samples;Min_cycle;Max_cycle;Signal;HPM_P1;HPM_P2
2022/10/12 00:00:49;;;;;;;9.63;3.20;;;;;;;;;;5025114;28;20217;-76
2022/10/12 00:03:15;;;;;;;7.72;2.97;;;;;;;;;;5022791;28;20381;-77
2022/10/12 00:05:40;;;;;;;6.65;3.47;;;;;;;;;;5015641;28;20026;-76
2022/10/12 00:08:06;;;;;;;7.43;3.28;;;;;;;;;;5016187;28;20445;-76
2022/10/12 00:10:32;;;;;;;8.90;3.30;;;;;;;;;;5015792;28;20442;-77
2022/10/12 00:12:58;;;;;;;6.47;3.20;;;;;;;;;;5015287;28;20026;-76
2022/10/12 00:15:24;;;;;;;9.98;3.50;;;;;;;;;;5015323;28;20030;-76
2022/10/12 00:17:49;;;;;;;12.27;3.70;;;;;;;;;;5015986;28;20033;-76
2022/10/12 00:20:15;;;;;;;10.02;3.97;;;;;;;;;;5015399;28;20030;-76
2022/10/12 00:22:40;;;;;;;10.07;3.80;;;;;;;;;;5016725;28;20547;-76
2022/10/12 00:25:06;;;;;;;9.23;3.80;;;;;;;;;;5015369;28;20025;-76
2022/10/12 00:27:31;;;;;;;9.63;3.80;;;;;;;;;;5015323;28;20393;-76
2022/10/12 00:29:57;;;;;;;8.38;3.50;;;;;;;;;;5016538;28;20026;-77
2022/10/12 00:32:22;;;;;;;9.45;3.75;;;;;;;;;;5019285;28;20080;-77
2022/10/12 00:34:48;;;;;;;7.07;3.80;;;;;;;;;;5014760;28;20033;-76
2022/10/12 00:37:13;;;;;;;8.18;3.78;;;;;;;;;;5014747;28;20022;-76
2022/10/12 00:39:38;;;;;;;8.73;3.65;;;;;;;;;;5014980;28;20026;-76
2022/10/12 00:42:04;;;;;;;7.45;3.85;;;;;;;;;;5014894;28;20030;-76
2022/10/12 00:44:46;;;;;;;10.27;3.90;;;;;;;;;;5014768;28;20025;-76
2022/10/12 00:47:24;;;;;;;9.80;3.88;;;;;;;;;;5014740;28;20017;-76
2022/10/12 00:50:15;;;;;;;9.63;4.10;;;;;;;;;;5013963;28;20292;-76
2022/10/12 00:52:53;;;;;;;8.38;3.63;;;;;;;;;;5004114;28;20465;-75
2022/10/12 00:55:21;;;;;;;14.77;4.10;;;;;;;;;;5021571;28;20018;-76
2022/10/12 00:57:50;;;;;;;7.93;3.67;;;;;;;;;;5021550;28;20026;-76
2022/10/12 01:00:17;;;;;;;7.63;3.88;;;;;;;;;;5015078;28;20436;-76
2022/10/12 01:02:43;;;;;;;11.90;4.20;;;;;;;;;;5014410;28;20026;-76
2022/10/12 01:05:10;;;;;;;11.60;3.83;;;;;;;;;;5014401;28;20036;-76
2022/10/12 01:07:36;;;;;;;9.68;4.22;;;;;;;;;;5014190;28;20619;-76
2022/10/12 01:10:03;;;;;;;6.20;3.33;;;;;;;;;;5014333;28;20117;-76
2022/10/12 01:12:28;;;;;;;8.98;3.58;;;;;;;;;;5014103;28;20117;-76
2022/10/12 01:14:54;;;;;;;9.05;4.03;;;;;;;;;;5014257;28;20118;-76
2022/10/12 01:17:58;;;;;;;10.98;4.00;;;;;;;;;;5014587;28;20030;-76
2022/10/12 01:20:54;;;;;;;9.68;3.75;;;;;;;;;;5014331;28;20022;-76
2022/10/12 01:23:57;;;;;;;7.45;3.28;;;;;;;;;;5014053;28;20108;-76
2022/10/12 01:26:34;;;;;;;8.15;3.65;;;;;;;;;;5014476;28;20061;-76
2022/10/12 01:29:12;;;;;;;9.50;4.10;;;;;;;;;;5018254;28;20037;-76
2022/10/12 01:31:46;;;;;;;10.88;3.72;;;;;;;;;;5018509;28;20053;-76
2022/10/12 01:34:28;;;;;;;8.65;3.70;;;;;;;;;;5017525;28;20064;-76
2022/10/12 01:37:14;;;;;;;7.97;3.63;;;;;;;;;;5016472;28;20022;-76
2022/10/12 01:39:45;;;;;;;7.68;3.75;;;;;;;;;;5014006;28;20564;-76
2022/10/12 01:42:19;;;;;;;10.18;4.05;;;;;;;;;;5015920;28;20022;-76
2022/10/12 01:44:44;;;;;;;8.82;3.63;;;;;;;;;;5014532;28;20030;-76
2022/10/12 01:47:10;;;;;;;10.32;3.83;;;;;;;;;;5013805;28;20018;-76
2022/10/12 01:49:36;;;;;;;9.38;3.92;;;;;;;;;;5014243;28;20033;-76
2022/10/12 01:52:22;;;;;;;9.85;3.67;;;;;;;;;;5014276;28;20030;-75
2022/10/12 01:55:12;;;;;;;6.47;3.50;;;;;;;;;;5013985;28;20532;-76
2022/10/12 01:58:02;;;;;;;;;;;;;;;;;;5018704;28;20026;-76
2022/10/12 02:00:34;;;;;;;9.05;3.72;;;;;;;;;;5015127;28;19917;-76
2022/10/12 02:03:17;;;;;;;8.07;3.55;;;;;;;;;;5013343;28;20486;-76
2022/10/12 02:06:01;;;;;;;8.73;3.47;;;;;;;;;;5013674;28;20049;-76
2022/10/12 02:08:53;;;;;;;8.43;3.42;;;;;;;;;;5013103;28;20030;-75
2022/10/12 02:11:20;;;;;;;7.28;3.70;;;;;;;;;;5013815;28;20029;-76
2022/10/12 02:13:58;;;;;;;8.88;3.55;;;;;;;;;;5013464;28;20061;-75
2022/10/12 02:16:32;;;;;;;8.15;3.60;;;;;;;;;;5013575;28;20068;-75
2022/10/12 02:18:59;;;;;;;11.02;3.70;;;;;;;;;;5013210;28;20425;-75
2022/10/12 02:21:30;;;;;;;10.98;3.40;;;;;;;;;;5013278;28;20485;-76
2022/10/12 02:23:59;;;;;;;9.55;3.55;;;;;;;;;;5012019;28;20573;-76
2022/10/12 02:26:25;;;;;;;11.10;3.80;;;;;;;;;;5013255;28;20030;-76
2022/10/12 02:28:51;;;;;;;8.48;3.70;;;;;;;;;;5013348;28;20026;-75
2022/10/12 02:31:36;;;;;;;8.02;3.28;;;;;;;;;;5013348;28;20065;-76
2022/10/12 02:34:10;;;;;;;11.38;3.53;;;;;;;;;;5013103;28;20026;-76
2022/10/12 02:36:58;;;;;;;8.15;3.55;;;;;;;;;;5013316;28;20026;-76
2022/10/12 02:39:41;;;;;;;7.22;3.08;;;;;;;;;;5012186;28;20032;-76
2022/10/12 02:42:14;;;;;;;8.75;3.55;;;;;;;;;;5013230;28;20026;-76
2022/10/12 02:44:41;;;;;;;8.25;3.30;;;;;;;;;;5013148;28;20018;-76
2022/10/12 02:47:09;;;;;;;7.88;3.10;;;;;;;;;;5013340;28;20029;-76
2022/10/12 02:49:35;;;;;;;10.05;3.20;;;;;;;;;;5011797;28;20037;-76
2022/10/12 02:52:02;;;;;;;6.22;3.15;;;;;;;;;;5013047;28;20088;-76
2022/10/12 02:54:28;;;;;;;6.35;3.20;;;;;;;;;;5012706;28;20053;-76
2022/10/12 02:56:54;;;;;;;8.88;3.10;;;;;;;;;;5013046;28;20030;-76
2022/10/12 02:59:19;;;;;;;5.70;3.00;;;;;;;;;;5013089;28;20032;-76
2022/10/12 03:01:45;;;;;;;5.60;2.92;;;;;;;;;;5012966;28;20037;-76
2022/10/12 03:04:10;;;;;;;8.85;3.22;;;;;;;;;;5013560;28;20026;-76
2022/10/12 03:06:36;;;;;;;10.38;3.70;;;;;;;;;;5013013;28;20041;-76
2022/10/12 03:09:03;;;;;;;10.15;3.55;;;;;;;;;;5012788;28;20478;-75
2022/10/12 03:11:30;;;;;;;10.82;3.63;;;;;;;;;;5012958;28;20061;-75
2022/10/12 03:13:56;;;;;;;8.60;3.28;;;;;;;;;;5012890;28;20036;-75
2022/10/12 03:16:22;;;;;;;11.75;3.80;;;;;;;;;;5011667;28;20037;-75
2022/10/12 03:18:48;;;;;;;8.90;3.60;;;;;;;;;;5012990;28;20061;-76
2022/10/12 03:21:14;;;;;;;11.07;4.07;;;;;;;;;;5016048;28;20038;-76
2022/10/12 03:23:39;;;;;;;10.02;3.85;;;;;;;;;;5016214;28;20129;-76
2022/10/12 03:26:05;;;;;;;11.68;4.70;;;;;;;;;;5016247;28;20026;-75
2022/10/12 03:28:31;;;;;;;9.20;3.83;;;;;;;;;;5014799;28;20029;-76
2022/10/12 03:30:57;;;;;;;12.70;4.00;;;;;;;;;;5016115;28;20026;-76
2022/10/12 03:33:23;;;;;;;11.32;4.30;;;;;;;;;;5015961;28;20117;-76
2022/10/12 03:35:49;;;;;;;8.45;4.20;;;;;;;;;;5014838;28;20073;-75
2022/10/12 03:38:15;;;;;;;10.73;4.03;;;;;;;;;;5016321;28;20157;-75
2022/10/12 03:40:41;;;;;;;8.93;4.05;;;;;;;;;;5016258;28;20026;-76
2022/10/12 03:43:07;;;;;;;8.27;4.00;;;;;;;;;;5015922;28;20030;-76
2022/10/12 03:45:32;;;;;;;10.52;4.20;;;;;;;;;;5016896;28;20370;-75
2022/10/12 03:47:58;;;;;;;8.95;4.18;;;;;;;;;;5015999;28;20022;-75
2022/10/12 03:50:23;;;;;;;11.98;4.65;;;;;;;;;;5018093;28;20029;-75
2022/10/12 03:52:49;;;;;;;10.55;4.10;;;;;;;;;;5015641;28;20070;-75
2022/10/12 03:55:14;;;;;;;14.18;4.13;;;;;;;;;;5016006;28;20026;-75
2022/10/12 03:57:40;;;;;;;9.02;4.10;;;;;;;;;;5015703;28;20026;-76
2022/10/12 04:00:06;;;;;;;8.57;3.90;;;;;;;;;;5015579;28;20488;-75
2022/10/12 04:02:32;;;;;;;9.57;4.22;;;;;;;;;;5015648;28;20037;-76
2022/10/12 04:04:57;;;;;;;8.98;3.80;;;;;;;;;;5015370;28;20028;-76
2022/10/12 04:07:22;;;;;;;9.45;4.38;;;;;;;;;;5015403;28;20034;-76
2022/10/12 04:09:48;;;;;;;13.75;4.47;;;;;;;;;;5016919;28;20030;-74
2022/10/12 04:12:13;;;;;;;11.38;4.20;;;;;;;;;;5016043;28;20436;-76
2022/10/12 04:14:39;;;;;;;9.73;4.20;;;;;;;;;;5015920;28;20063;-76
2022/10/12 04:17:04;;;;;;;8.90;3.78;;;;;;;;;;5016065;28;20081;-75
2022/10/12 04:19:30;;;;;;;10.55;4.10;;;;;;;;;;5015209;28;20033;-76
2022/10/12 04:21:55;;;;;;;11.77;4.07;;;;;;;;;;5015030;28;20030;-75
2022/10/12 04:24:21;;;;;;;9.63;4.50;;;;;;;;;;5015217;28;20030;-76
2022/10/12 04:26:46;;;;;;;9.40;4.22;;;;;;;;;;5015123;28;20033;-76
2022/10/12 04:29:15;;;;;;;8.65;4.13;;;;;;;;;;5022935;28;20306;-76
2022/10/12 04:31:41;;;;;;;10.73;4.03;;;;;;;;;;5024544;28;20033;-76
2022/10/12 04:34:08;;;;;;;12.00;3.85;;;;;;;;;;5025716;28;20053;-76
2022/10/12 04:36:33;;;;;;;9.38;4.28;;;;;;;;;;5025636;28;20101;-76
2022/10/12 04:38:58;;;;;;;9.77;4.50;;;;;;;;;;5023215;28;20064;-76
2022/10/12 04:41:24;;;;;;;10.77;4.28;;;;;;;;;;5024331;28;20025;-76
2022/10/12 04:43:51;;;;;;;11.20;4.22;;;;;;;;;;5022876;28;20034;-76
2022/10/12 04:46:17;;;;;;;13.02;4.30;;;;;;;;;;5025519;28;20064;-75
2022/10/12 04:48:42;;;;;;;10.00;4.72;;;;;;;;;;5025432;28;20026;-76
2022/10/12 04:51:08;;;;;;;14.55;4.60;;;;;;;;;;5025278;28;20220;-75
2022/10/12 04:53:34;;;;;;;9.35;4.68;;;;;;;;;;5017322;28;20064;-76
2022/10/12 04:56:02;;;;;;;12.25;4.70;;;;;;;;;;5023898;28;20034;-76
2022/10/12 04:58:27;;;;;;;9.43;4.43;;;;;;;;;;5015778;28;20029;-76
2022/10/12 05:00:53;;;;;;;12.48;4.75;;;;;;;;;;5014630;28;20168;-76
2022/10/12 05:03:18;;;;;;;12.10;4.75;;;;;;;;;;5014428;28;20030;-75
2022/10/12 05:05:44;;;;;;;7.95;4.47;;;;;;;;;;5014423;28;20028;-76
2022/10/12 05:08:09;;;;;;;11.23;4.93;;;;;;;;;;5014533;28;20014;-75
2022/10/12 05:10:34;;;;;;;11.80;4.68;;;;;;;;;;5014342;28;20048;-76
2022/10/12 05:13:00;;;;;;;10.55;4.85;;;;;;;;;;5014274;28;20077;-75
2022/10/12 05:15:26;;;;;;;10.60;4.68;;;;;;;;;;5014799;28;20026;-75
2022/10/12 05:17:51;;;;;;;10.70;4.70;;;;;;;;;;5020295;28;20121;-75
2022/10/12 05:20:16;;;;;;;10.13;4.70;;;;;;;;;;5024934;28;20018;-75
2022/10/12 05:22:42;;;;;;;10.98;4.55;;;;;;;;;;5024771;28;20057;-76
2022/10/12 05:25:08;;;;;;;12.23;5.00;;;;;;;;;;5023724;28;20292;-75
2022/10/12 05:27:33;;;;;;;7.40;4.85;;;;;;;;;;5014985;28;20081;-76
2022/10/12 05:29:59;;;;;;;9.82;4.72;;;;;;;;;;5020157;28;20036;-75
2022/10/12 05:32:24;;;;;;;11.90;4.57;;;;;;;;;;5023212;28;20095;-75
2022/10/12 05:34:49;;;;;;;9.95;4.80;;;;;;;;;;5021080;28;20534;-76
2022/10/12 05:37:15;;;;;;;8.43;4.63;;;;;;;;;;5014449;28;20038;-76
2022/10/12 05:39:40;;;;;;;10.95;4.68;;;;;;;;;;5013896;28;20112;-76
2022/10/12 05:42:06;;;;;;;8.93;4.50;;;;;;;;;;5013760;28;20036;-75
2022/10/12 05:44:31;;;;;;;11.27;4.82;;;;;;;;;;5012670;28;20470;-75
2022/10/12 05:46:56;;;;;;;8.68;4.53;;;;;;;;;;5015562;28;20051;-78
2022/10/12 05:49:22;;;;;;;10.77;4.82;;;;;;;;;;5013518;28;20030;-77
2022/10/12 05:51:47;;;;;;;11.15;4.85;;;;;;;;;;5013585;28;20036;-74
2022/10/12 05:54:21;;;;;;;9.38;4.90;;;;;;;;;;5013572;28;20136;-74
2022/10/12 05:56:47;;;;;;;11.45;4.80;;;;;;;;;;5013608;28;20478;-76
2022/10/12 05:59:12;;;;;;;10.10;5.07;;;;;;;;;;5013621;28;20084;-76
2022/10/12 06:01:38;;;;;;;9.10;5.15;;;;;;;;;;5013542;28;20041;-77
2022/10/12 06:04:03;;;;;;;11.15;5.20;;;;;;;;;;5018199;28;20037;-77
2022/10/12 06:06:29;;;;;;;8.93;4.70;;;;;;;;;;5024159;28;20029;-77
2022/10/12 06:08:54;;;;;;;11.13;5.25;;;;;;;;;;5015954;28;20057;-77
2022/10/12 06:11:20;;;;;;;10.18;5.18;;;;;;;;;;5013680;28;20469;-77
2022/10/12 06:13:45;;;;;;;12.23;5.13;;;;;;;;;;5013829;28;20053;-74
2022/10/12 06:16:10;;;;;;;13.02;5.38;;;;;;;;;;5013926;28;20049;-77
2022/10/12 06:18:36;;;;;;;11.13;5.15;;;;;;;;;;5013788;28;20080;-74
2022/10/12 06:21:01;;;;;;;12.18;5.38;;;;;;;;;;5013453;28;20499;-77
2022/10/12 06:23:27;;;;;;;11.20;5.20;;;;;;;;;;5013449;28;20032;-74
2022/10/12 06:25:52;;;;;;;13.07;5.40;;;;;;;;;;5013138;28;20076;-77
2022/10/12 06:28:19;;;;;;;13.70;5.40;;;;;;;;;;5011946;28;20397;-77
2022/10/12 06:30:46;;;;;;;13.10;5.70;;;;;;;;;;5013253;28;20109;-77
2022/10/12 06:33:12;;;;;;;16.00;5.53;;;;;;;;;;5013240;28;20030;-77
2022/10/12 06:35:37;;;;;;;11.43;5.13;;;;;;;;;;5013580;28;20083;-77
2022/10/12 06:38:03;;;;;;;13.13;5.40;;;;;;;;;;5013241;28;20029;-76
2022/10/12 06:40:28;;;;;;;10.00;5.72;;;;;;;;;;5013069;28;20041;-77
2022/10/12 06:42:53;;;;;;;13.93;5.10;;;;;;;;;;5021942;28;20285;-77
2022/10/12 06:45:19;;;;;;;15.05;5.70;;;;;;;;;;5023611;28;20324;-77
2022/10/12 06:47:44;;;;;;;16.23;6.30;;;;;;;;;;5023578;28;20225;-80
2022/10/12 06:50:10;;;;;;;11.63;5.65;;;;;;;;;;5023680;28;20044;-75
2022/10/12 06:52:36;;;;;;;11.73;6.03;;;;;;;;;;5023642;28;20254;-75
2022/10/12 06:55:02;;;;;;;16.30;6.05;;;;;;;;;;5024785;28;20097;-78
2022/10/12 06:57:28;;;;;;;15.07;5.57;;;;;;;;;;5026216;28;20037;-78
2022/10/12 06:59:53;;;;;;;13.63;5.65;;;;;;;;;;5027433;28;20014;-78
2022/10/12 07:02:19;;;;;;;16.70;5.88;;;;;;;;;;5027003;28;20037;-77
2022/10/12 07:04:49;;;;;;;15.80;6.90;;;;;;;;;;5025795;28;20033;-82
2022/10/12 07:07:15;;;;;;;;;;;;;;;;;;5028130;28;20033;-85
2022/10/12 07:09:40;;;;;;;16.75;6.60;;;;;;;;;;5027211;28;19980;-81
2022/10/12 07:12:06;;;;;;;14.57;6.63;;;;;;;;;;5026982;28;20030;-80
2022/10/12 07:14:31;;;;;;;11.13;6.57;;;;;;;;;;5027068;28;20229;-81
2022/10/12 07:16:56;;;;;;;11.90;7.22;;;;;;;;;;5027025;28;20025;-79
2022/10/12 07:19:22;;;;;;;16.40;7.68;;;;;;;;;;5027000;28;20022;-82
2022/10/12 07:21:47;;;;;;;17.48;9.20;;;;;;;;;;5027215;28;20104;-78
2022/10/12 07:24:13;;;;;;;19.80;10.35;;;;;;;;;;5025767;28;20033;-78
2022/10/12 07:26:38;;;;;;;21.60;11.07;;;;;;;;;;5026383;28;20100;-76
2022/10/12 07:29:04;;;;;;;24.80;12.05;;;;;;;;;;5026815;28;20046;-77
2022/10/12 07:31:29;;;;;;;27.20;12.27;;;;;;;;;;5026822;28;20084;-76
2022/10/12 07:33:54;;;;;;;27.45;12.85;;;;;;;;;;5026831;28;20041;-77
2022/10/12 07:36:20;;;;;;;31.10;13.18;;;;;;;;;;5026790;28;20025;-77
2022/10/12 07:38:47;;;;;;;30.70;13.27;;;;;;;;;;5025627;28;20029;-76
2022/10/12 07:41:13;;;;;;;27.92;12.52;;;;;;;;;;5026713;28;20026;-77
2022/10/12 07:43:39;;;;;;;23.70;12.20;;;;;;;;;;5026332;28;20301;-77
2022/10/12 07:46:04;;;;;;;27.33;11.07;;;;;;;;;;5026659;28;20026;-76
2022/10/12 07:48:30;;;;;;;25.08;10.43;;;;;;;;;;5026868;28;20045;-77
2022/10/12 07:51:06;;;;;;;22.27;10.05;;;;;;;;;;5026441;28;20049;-77
2022/10/12 07:53:33;;;;;;;22.33;10.40;;;;;;;;;;5022739;28;20112;-77
2022/10/12 07:56:00;;;;;;;22.40;11.77;;;;;;;;;;5022134;28;20492;-77
2022/10/12 07:58:25;;;;;;;26.90;13.30;;;;;;;;;;5023770;28;20102;-77
2022/10/12 08:00:50;;;;;;;21.38;12.85;;;;;;;;;;5023045;28;20022;-77
2022/10/12 08:03:16;;;;;;;23.77;12.00;;;;;;;;;;5025471;28;20290;-77
2022/10/12 08:05:41;;;;;;;20.52;12.07;;;;;;;;;;5024961;28;20032;-77
2022/10/12 08:08:07;;;;;;;24.65;11.82;;;;;;;;;;5023922;28;20033;-76
2022/10/12 08:10:33;;;;;;;18.63;10.82;;;;;;;;;;5025561;28;20030;-77
2022/10/12 08:12:59;;;;;;;17.00;9.60;;;;;;;;;;5024383;28;20076;-77
2022/10/12 08:15:24;;;;;;;22.48;10.85;;;;;;;;;;5026081;28;20026;-76
2022/10/12 08:17:50;;;;;;;18.25;10.38;;;;;;;;;;5025730;28;20025;-76
2022/10/12 08:20:15;;;;;;;18.50;9.90;;;;;;;;;;5026007;28;20033;-77
2022/10/12 08:22:40;;;;;;;15.05;9.10;;;;;;;;;;5026070;28;20097;-76
2022/10/12 08:25:15;;;;;;;13.65;9.75;;;;;;;;;;5024225;28;20029;-77
2022/10/12 08:27:41;;;;;;;15.68;10.10;;;;;;;;;;5025727;28;20026;-78
2022/10/12 08:30:07;;;;;;;15.55;9.65;;;;;;;;;;5025760;28;20029;-78
2022/10/12 08:32:32;;;;;;;21.23;10.85;;;;;;;;;;5026245;28;20102;-80
2022/10/12 08:34:58;;;;;;;24.13;12.68;;;;;;;;;;5025932;28;20030;-79
2022/10/12 08:37:23;;;;;;;30.33;12.20;;;;;;;;;;5025594;28;20034;-79
2022/10/12 08:39:49;;;;;;;22.75;12.27;;;;;;;;;;5025799;28;20249;-80
2022/10/12 08:42:18;;;;;;;20.10;11.80;;;;;;;;;;5023508;28;20084;-81
2022/10/12 08:44:56;;;;;;;17.00;10.80;;;;;;;;;;5025127;28;20026;-80
2022/10/12 08:47:41;;;;;;;22.10;11.32;;;;;;;;;;5023210;28;20034;-81
2022/10/12 08:50:16;;;;;;;19.35;10.80;;;;;;;;;;5021229;28;20096;-79
2022/10/12 08:53:05;;;;;;;16.80;9.93;;;;;;;;;;5023843;28;20050;-80
2022/10/12 08:55:41;;;;;;;19.58;9.68;;;;;;;;;;5025441;28;20068;-81
2022/10/12 08:58:12;;;;;;;19.27;9.07;;;;;;;;;;5025333;28;20021;-79
2022/10/12 09:00:38;;;;;;;15.85;8.70;;;;;;;;;;5025159;28;20041;-80
2022/10/12 09:03:09;;;;;;;15.10;8.73;;;;;;;;;;5024609;28;20100;-80
2022/10/12 09:05:46;;;;;;;14.77;8.60;;;;;;;;;;5025008;28;20025;-79
2022/10/12 09:08:16;;;;;;;15.35;7.97;;;;;;;;;;5025338;28;20026;-78
2022/10/12 09:10:46;;;;;;;;;;;;;;;;;;5025400;28;20049;-78
2022/10/12 09:13:33;;;;;;;10.55;6.32;;;;;;;;;;5025227;28;20201;-76
2022/10/12 09:16:18;;;;;;;13.48;6.70;;;;;;;;;;5024904;28;20049;-78
2022/10/12 09:18:47;;;;;;;12.50;6.78;;;;;;;;;;5023659;28;20037;-77
2022/10/12 09:21:18;;;;;;;12.77;6.82;;;;;;;;;;5025042;28;20072;-77
2022/10/12 09:23:44;;;;;;;;;;;;;;;;;;5025379;28;20036;-77
2022/10/12 09:26:12;;;;;;;12.50;6.13;;;;;;;;;;5024717;28;19909;-79
2022/10/12 09:28:57;;;;;;;12.38;6.60;;;;;;;;;;5024759;28;20202;-81
2022/10/12 09:31:49;;;;;;;11.18;5.70;;;;;;;;;;5024780;28;20400;-80
2022/10/12 09:34:15;;;;;;;10.20;6.15;;;;;;;;;;5024717;28;20100;-78
2022/10/12 09:36:41;;;;;;;11.95;5.90;;;;;;;;;;5023441;28;20024;-77
2022/10/12 09:39:14;;;;;;;12.23;5.47;;;;;;;;;;5024529;28;20018;-80
2022/10/12 09:41:43;;;;;;;13.02;5.50;;;;;;;;;;5024865;28;20049;-81
2022/10/12 09:44:29;;;;;;;15.55;5.70;;;;;;;;;;5024806;28;20100;-82
2022/10/12 09:47:05;;;;;;;11.77;4.50;;;;;;;;;;5025210;28;20025;-82
2022/10/12 09:49:39;;;;;;;13.23;4.70;;;;;;;;;;5025266;28;20052;-83
2022/10/12 09:52:05;;;;;;;13.10;4.72;;;;;;;;;;5028866;28;20021;-82
2022/10/12 09:54:31;;;;;;;9.70;4.72;;;;;;;;;;5023096;28;20281;-83
2022/10/12 09:56:57;;;;;;;13.02;5.05;;;;;;;;;;5024213;28;20218;-80
2022/10/12 09:59:42;;;;;;;12.00;4.63;;;;;;;;;;5024162;28;20026;-76
2022/10/12 10:02:10;;;;;;;10.70;4.72;;;;;;;;;;5023937;28;20128;-75
2022/10/12 10:04:37;;;;;;;7.80;4.03;;;;;;;;;;5023966;28;20045;-77
2022/10/12 10:07:24;;;;;;;12.48;4.10;;;;;;;;;;5024220;28;20034;-76
2022/10/12 10:10:18;;;;;;;8.15;4.10;;;;;;;;;;5024024;28;20025;-75
2022/10/12 10:12:48;;;;;;;11.13;3.97;;;;;;;;;;5023503;28;20034;-79
2022/10/12 10:15:23;;;;;;;13.10;4.28;;;;;;;;;;5024216;28;20096;-78
2022/10/12 10:17:54;;;;;;;13.23;3.80;;;;;;;;;;5023615;28;20053;-82
2022/10/12 10:20:25;;;;;;;15.70;4.03;;;;;;;;;;5023990;28;20033;-78
2022/10/12 10:22:51;;;;;;;9.52;3.78;;;;;;;;;;5024277;28;20056;-78
2022/10/12 10:25:21;;;;;;;12.57;4.07;;;;;;;;;;5024076;28;20213;-77
2022/10/12 10:27:46;;;;;;;10.68;4.20;;;;;;;;;;5022833;28;20017;-74
2022/10/12 10:32:37;;;;;;;11.68;4.13;;;;;;;;;;5122218;27;20455;-75
2022/10/12 10:35:12;;;;;;;9.23;4.03;;;;;;;;;;5101163;28;20024;-77
2022/10/12 10:37:44;;;;;;;11.70;3.78;;;;;;;;;;5101477;28;20101;-75
2022/10/12 10:40:37;;;;;;;10.13;3.80;;;;;;;;;;5101174;28;20027;-75
2022/10/12 10:43:05;;;;;;;11.75;3.95;;;;;;;;;;5096997;28;20102;-77
2022/10/12 10:45:34;;;;;;;9.30;3.50;;;;;;;;;;5082078;28;20024;-75
2022/10/12 10:48:12;;;;;;;11.30;3.50;;;;;;;;;;5101341;28;20039;-81
2022/10/12 10:50:41;;;;;;;13.68;3.42;;;;;;;;;;5082711;28;20036;-79
2022/10/12 10:53:22;;;;;;;19.65;3.22;;;;;;;;;;5101526;28;20208;-76
2022/10/12 10:56:04;;;;;;;12.65;3.47;;;;;;;;;;5101345;28;20020;-78
2022/10/12 10:58:32;;;;;;;11.25;3.70;;;;;;;;;;5101192;28;20398;-76
2022/10/12 11:01:04;;;;;;;12.85;3.55;;;;;;;;;;5100555;28;20024;-81
2022/10/12 11:03:33;;;;;;;10.45;3.38;;;;;;;;;;5098675;28;20316;-79
2022/10/12 11:06:25;;;;;;;9.75;3.40;;;;;;;;;;5099532;28;20024;-76
2022/10/12 11:08:57;;;;;;;11.20;3.90;;;;;;;;;;5100296;28;20042;-75
2022/10/12 11:11:26;;;;;;;10.00;3.30;;;;;;;;;;5100700;28;20032;-76
2022/10/12 11:14:03;;;;;;;12.20;3.33;;;;;;;;;;5100989;28;20031;-81
2022/10/12 11:16:34;;;;;;;10.95;3.20;;;;;;;;;;5101202;28;20032;-78
2022/10/12 11:19:11;;;;;;;14.07;3.38;;;;;;;;;;5101190;28;20095;-77
2022/10/12 11:21:48;;;;;;;8.98;3.35;;;;;;;;;;5100330;28;20031;-78
2022/10/12 11:24:17;;;;;;;10.68;3.38;;;;;;;;;;5100789;28;20034;-78
2022/10/12 11:26:52;;;;;;;13.15;3.70;;;;;;;;;;5097430;28;20095;-70
2022/10/12 11:29:18;;;;;;;9.52;3.55;;;;;;;;;;5090524;28;20040;-78
2022/10/12 11:32:02;;;;;;;12.30;3.53;;;;;;;;;;5076290;28;20454;-77
2022/10/12 11:34:33;;;;;;;12.23;3.65;;;;;;;;;;5069431;28;20021;-76
2022/10/12 11:37:02;;;;;;;9.57;3.17;;;;;;;;;;5069455;28;20024;-79
2022/10/12 11:39:43;;;;;;;11.70;4.20;;;;;;;;;;5069126;28;20039;-76
2022/10/12 11:42:13;;;;;;;9.00;3.65;;;;;;;;;;5065950;28;20029;-78
2022/10/12 11:44:42;;;;;;;10.80;3.63;;;;;;;;;;5056013;28;20048;-77
2022/10/12 11:47:11;;;;;;;8.63;3.13;;;;;;;;;;5056070;28;20069;-80
2022/10/12 11:49:54;;;;;;;8.20;3.03;;;;;;;;;;5056332;28;20075;-80
2022/10/12 11:52:21;;;;;;;9.98;3.17;;;;;;;;;;5055895;28;20031;-80
2022/10/12 11:54:58;;;;;;;10.77;3.15;;;;;;;;;;5055823;28;20021;-80
2022/10/12 11:57:29;;;;;;;9.80;3.17;;;;;;;;;;5055768;28;20029;-80
2022/10/12 12:00:02;;;;;;;11.15;3.38;;;;;;;;;;5055796;28;20039;-76
2022/10/12 12:02:37;;;;;;;18.13;3.40;;;;;;;;;;5055630;28;20457;-75
2022/10/12 12:05:05;;;;;;;9.52;2.95;;;;;;;;;;5055637;28;20388;-76
2022/10/12 12:07:55;;;;;;;6.68;2.65;;;;;;;;;;5055333;28;20079;-78
2022/10/12 12:10:24;;;;;;;9.55;3.00;;;;;;;;;;5037287;28;20024;-73
2022/10/12 12:13:11;;;;;;;9.18;2.75;;;;;;;;;;5055242;28;20029;-77
2022/10/12 12:15:46;;;;;;;15.20;2.85;;;;;;;;;;5055288;28;20039;-75
2022/10/12 12:18:13;;;;;;;7.18;2.63;;;;;;;;;;5055194;28;20033;-75
2022/10/12 12:20:41;;;;;;;7.70;2.60;;;;;;;;;;5055267;28;20544;-73
2022/10/12 12:23:24;;;;;;;10.10;2.40;;;;;;;;;;5055341;28;20079;-73
2022/10/12 12:26:08;;;;;;;9.40;2.60;;;;;;;;;;5037127;28;20020;-77
2022/10/12 12:28:35;;;;;;;7.55;2.78;;;;;;;;;;5055061;28;20472;-72
2022/10/12 12:31:10;;;;;;;6.38;2.72;;;;;;;;;;5054623;28;20114;-77
2022/10/12 12:33:40;;;;;;;8.45;2.72;;;;;;;;;;5054885;28;20033;-74
2022/10/12 12:36:13;;;;;;;7.75;2.83;;;;;;;;;;5054584;28;20091;-74
2022/10/12 12:38:44;;;;;;;6.38;2.78;;;;;;;;;;5037146;28;20393;-72
2022/10/12 12:41:15;;;;;;;7.47;2.85;;;;;;;;;;5055376;28;20048;-73
2022/10/12 12:43:44;;;;;;;9.27;2.70;;;;;;;;;;5054743;28;20078;-73
2022/10/12 12:46:12;;;;;;;8.05;3.10;;;;;;;;;;5055083;28;20354;-82
2022/10/12 12:48:37;;;;;;;10.15;3.05;;;;;;;;;;5054785;28;20025;-73
2022/10/12 12:51:12;;;;;;;7.95;2.65;;;;;;;;;;5054605;28;20017;-81
2022/10/12 12:53:43;;;;;;;8.52;2.63;;;;;;;;;;5054320;28;20032;-78
2022/10/12 12:56:43;;;;;;;7.45;3.10;;;;;;;;;;5054060;28;20047;-73
2022/10/12 12:59:17;;;;;;;9.52;2.80;;;;;;;;;;5036663;28;20056;-75
2022/10/12 13:01:50;;;;;;;7.75;2.63;;;;;;;;;;5054634;28;20031;-76
2022/10/12 13:04:21;;;;;;;6.93;2.30;;;;;;;;;;5054439;28;20028;-75
2022/10/12 13:07:08;;;;;;;10.00;2.90;;;;;;;;;;5054296;28;20025;-76
2022/10/12 13:10:01;;;;;;;8.85;3.03;;;;;;;;;;5036276;28;20100;-75
2022/10/12 13:12:29;;;;;;;8.48;2.65;;;;;;;;;;5054222;28;20025;-75
2022/10/12 13:15:07;;;;;;;8.63;2.55;;;;;;;;;;5054694;28;20021;-76
2022/10/12 13:17:38;;;;;;;7.55;2.45;;;;;;;;;;5054140;28;20422;-74
2022/10/12 13:20:15;;;;;;;6.55;2.40;;;;;;;;;;5054328;28;20052;-73
2022/10/12 13:22:44;;;;;;;4.82;2.25;;;;;;;;;;5054193;28;20021;-75
2022/10/12 13:25:18;;;;;;;8.70;2.47;;;;;;;;;;5054111;28;20021;-76
2022/10/12 13:27:53;;;;;;;6.82;2.30;;;;;;;;;;5053836;28;20049;-74
2022/10/12 13:31:04;;;;;;;7.45;2.47;;;;;;;;;;5053533;28;20021;-78
2022/10/12 13:33:33;;;;;;;7.05;2.30;;;;;;;;;;5049069;28;20037;-76
2022/10/12 13:36:17;;;;;;;9.52;2.40;;;;;;;;;;5054199;28;20025;-72
2022/10/12 13:38:42;;;;;;;8.32;2.78;;;;;;;;;;5053987;28;20029;-72
2022/10/12 13:41:14;;;;;;;9.27;2.45;;;;;;;;;;5053689;28;20439;-72
2022/10/12 13:43:47;;;;;;;8.90;2.75;;;;;;;;;;5053883;28;20021;-73
2022/10/12 13:46:34;;;;;;;6.70;2.30;;;;;;;;;;5053605;28;20025;-76
2022/10/12 13:49:01;;;;;;;11.07;2.45;;;;;;;;;;5053068;28;20044;-82
2022/10/12 13:51:29;;;;;;;6.28;2.40;;;;;;;;;;5053487;28;20056;-77
2022/10/12 13:53:55;;;;;;;9.02;2.63;;;;;;;;;;5053745;28;20032;-80
2022/10/12 13:56:27;;;;;;;8.02;2.10;;;;;;;;;;5053627;28;20081;-78
2022/10/12 13:59:01;;;;;;;7.32;2.30;;;;;;;;;;5053804;28;20079;-74
2022/10/12 14:01:26;;;;;;;6.20;2.17;;;;;;;;;;5053856;28;20473;-77
2022/10/12 14:04:01;;;;;;;5.10;2.00;;;;;;;;;;5053513;28;20036;-78
2022/10/12 14:06:29;;;;;;;4.97;1.83;;;;;;;;;;5035254;28;20028;-78
2022/10/12 14:08:58;;;;;;;9.75;2.20;;;;;;;;;;5035718;28;20025;-75
2022/10/12 14:11:26;;;;;;;7.88;2.25;;;;;;;;;;5053252;28;20021;-77
2022/10/12 14:13:52;;;;;;;10.80;2.40;;;;;;;;;;5053193;28;20021;-77
2022/10/12 14:16:18;;;;;;;6.28;2.25;;;;;;;;;;5053444;28;20047;-82
2022/10/12 14:18:45;;;;;;;6.47;2.50;;;;;;;;;;5053176;28;20537;-82
2022/10/12 14:21:28;;;;;;;7.57;2.38;;;;;;;;;;5035136;28;20025;-79
2022/10/12 14:24:05;;;;;;;7.93;2.63;;;;;;;;;;5053081;28;20101;-82
2022/10/12 14:26:38;;;;;;;8.23;2.22;;;;;;;;;;5055865;28;20022;-78
2022/10/12 14:29:45;;;;;;;8.48;2.20;;;;;;;;;;5056735;28;20374;-78
2022/10/12 14:32:10;;;;;;;9.50;2.30;;;;;;;;;;5045798;28;20045;-75
2022/10/12 14:34:45;;;;;;;7.68;2.33;;;;;;;;;;5035034;28;20025;-80
2022/10/12 14:37:13;;;;;;;7.75;2.45;;;;;;;;;;5055256;28;20039;-77
2022/10/12 14:39:43;;;;;;;8.48;2.50;;;;;;;;;;5063647;28;20047;-75
2022/10/12 14:42:31;;;;;;;8.32;2.53;;;;;;;;;;5063754;28;20095;-72
2022/10/12 14:44:58;;;;;;;7.40;2.15;;;;;;;;;;5064102;28;20313;-71
2022/10/12 14:47:53;;;;;;;7.45;2.33;;;;;;;;;;5063660;28;20031;-71
2022/10/12 14:50:20;;;;;;;6.32;2.25;;;;;;;;;;5058295;28;20104;-71
2022/10/12 14:53:10;;;;;;;8.82;2.17;;;;;;;;;;5063295;28;20040;-71
2022/10/12 14:55:35;;;;;;;9.57;2.40;;;;;;;;;;5062852;28;20382;-71
2022/10/12 14:58:01;;;;;;;6.70;2.30;;;;;;;;;;5062256;28;20025;-71